Timothy L. Reinauer — WDE8763 — position and weather

sailwx.info

Track history (hours):
 
Tides and Currents Weather Stations Pressure Air Temp Water Temp Dewpoint Dewpoint Depression Visibility Wind Speed Wind Dir Waves Ship Positions

Timothy L. Reinauer

Owner: H.A. Reineauer, Staten Island, NY. More information available from US FCC via Universal Licensing System.

Last reported at 2018-Jan-21 18:30 UTC. Time now 2018-Jan-21 18:38 UTC.
Position N 41°48' W 071°24'.

Length 141 m; draft 6.7 m.

Type: . MMSI: 367409290.

Date/timePositionNaut miles runAvg speedWind from/ knotsBaromVisibWave heightAir tempDewpointWater temp
2018-Jan-21 18:30N 41°48' W 071°24'0 0.0
2018-Jan-21 18:00N 41°48' W 071°24'0 0.0
2018-Jan-21 17:30N 41°48' W 071°24'0 0.0
2018-Jan-21 17:00N 41°48' W 071°24'0 0.0
2018-Jan-21 16:29N 41°48' W 071°24'0 0.0
2018-Jan-21 16:00N 41°48' W 071°24'0 0.0
2018-Jan-21 15:30N 41°48' W 071°24'0 0.0
2018-Jan-21 15:00N 41°48' W 071°24'0 0.0
2018-Jan-21 14:30N 41°48' W 071°24'0 0.0
2018-Jan-21 14:00N 41°48' W 071°24'0 0.0
2018-Jan-21 13:30N 41°48' W 071°24'0 0.0
2018-Jan-21 13:00N 41°48' W 071°24'0 0.0
2018-Jan-21 12:30N 41°48' W 071°24'0 0.0
2018-Jan-21 12:00N 41°48' W 071°24'0 0.0
2018-Jan-21 11:30N 41°48' W 071°24'0 0.0
2018-Jan-21 11:00N 41°48' W 071°24'0 0.0
2018-Jan-21 10:30N 41°48' W 071°24'0 0.0
2018-Jan-21 10:00N 41°48' W 071°24'0 0.0
2018-Jan-21 09:30N 41°48' W 071°24'0 0.2
2018-Jan-21 09:00N 41°48' W 071°24'1 2.2
2018-Jan-21 08:30N 41°47' W 071°23'3 5.6
2018-Jan-21 07:59N 41°44' W 071°22'4 8.3
2018-Jan-21 07:31N 41°41' W 071°19'7 8.5
2018-Jan-21 06:41N 41°34' W 071°19'2 8.6
2018-Jan-21 06:30N 41°33' W 071°19'41 7.5
2018-Jan-21 01:03N 41°13' W 072°08'1 9.6
2018-Jan-21 00:59N 41°13' W 072°09'510.1
2018-Jan-21 00:30N 41°12' W 072°15'510.7
2018-Jan-21 00:00N 41°10' W 072°21'510.7
2018-Jan-20 23:30N 41°08' W 072°28'5 9.6
2018-Jan-20 23:00N 41°08' W 072°34'510.2
2018-Jan-20 22:29N 41°07' W 072°41'510.2
2018-Jan-20 22:00N 41°05' W 072°48'37 9.8
2018-Jan-20 18:12N 40°56' W 073°35'2 9.4
2018-Jan-20 17:58N 40°55' W 073°38'4 9.3
2018-Jan-20 17:30N 40°53' W 073°43'5 9.3
2018-Jan-20 16:59N 40°49' W 073°47'4 7.8
2018-Jan-20 16:30N 40°48' W 073°52'4 8.6
2018-Jan-20 16:00N 40°46' W 073°57'5 8.9
2018-Jan-20 15:30N 40°42' W 073°60'4 9.0
2018-Jan-20 15:00N 40°39' W 074°03'0 0.8
2018-Jan-20 14:30N 40°38' W 074°03'1 2.1
2018-Jan-20 14:00N 40°39' W 074°04'3 5.8
2018-Jan-20 13:30N 40°39' W 074°08'3 5.6
2018-Jan-20 13:00N 40°38' W 074°12'3 6.5
2018-Jan-20 12:30N 40°35' W 074°13'3 6.4
2018-Jan-20 12:00N 40°33' W 074°15'0 0.0
2018-Jan-20 11:25N 40°33' W 074°15'0 0.0
2018-Jan-20 10:59N 40°33' W 074°15'0 0.0
2018-Jan-20 10:20N 40°33' W 074°15'1 2.0
2018-Jan-20 10:00N 40°33' W 074°15'5 9.4
2018-Jan-20 09:30N 40°37' W 074°12'4 7.0
2018-Jan-20 09:00N 40°38' W 074°08'0 0.0
2018-Jan-20 08:30N 40°38' W 074°08'0 0.0
2018-Jan-20 08:00N 40°38' W 074°08'0 0.0
2018-Jan-20 07:30N 40°38' W 074°08'0 0.0
2018-Jan-20 07:00N 40°38' W 074°08'0 0.0
2018-Jan-20 06:30N 40°38' W 074°08'0 0.0
2018-Jan-20 06:00N 40°38' W 074°08'0 0.0
2018-Jan-20 05:30N 40°38' W 074°08'0 0.0
2018-Jan-20 05:00N 40°38' W 074°08'0 0.0
2018-Jan-20 04:30N 40°38' W 074°08'0 0.0
2018-Jan-20 04:00N 40°38' W 074°08'0 0.0
2018-Jan-20 03:29N 40°38' W 074°08'0 0.0
2018-Jan-20 03:00N 40°38' W 074°08'0 0.0
2018-Jan-20 02:30N 40°38' W 074°08'0 0.0
2018-Jan-20 02:00N 40°38' W 074°08'0 0.0
2018-Jan-20 01:30N 40°38' W 074°08'0 0.0
2018-Jan-20 01:00N 40°38' W 074°08'0 0.0
2018-Jan-20 00:29N 40°38' W 074°08'0 0.0
2018-Jan-20 00:00N 40°38' W 074°08'0 0.0
2018-Jan-19 23:30N 40°38' W 074°08'0 0.0
2018-Jan-19 23:00N 40°38' W 074°08'0 0.0
2018-Jan-19 22:30N 40°38' W 074°08'0 0.0
2018-Jan-19 21:59N 40°38' W 074°08'0 0.0
2018-Jan-19 21:29N 40°38' W 074°08'0 0.0
2018-Jan-19 21:00N 40°38' W 074°08'0 0.0
2018-Jan-19 20:30N 40°38' W 074°08'0 0.0
2018-Jan-19 20:00N 40°38' W 074°08'0 0.1
2018-Jan-19 19:30N 40°38' W 074°08'0 0.0
2018-Jan-19 19:00N 40°38' W 074°08'3 6.0
2018-Jan-19 18:28N 40°38' W 074°12'4 8.6
2018-Jan-19 17:59N 40°34' W 074°13'1 0.3
2018-Jan-19 13:36N 40°33' W 074°14'0 0.2
2018-Jan-19 13:30N 40°33' W 074°14'1 1.9
2018-Jan-19 12:57N 40°33' W 074°15'6 3.9
2018-Jan-19 11:30N 40°38' W 074°12'2 4.4
2018-Jan-19 11:00N 40°39' W 074°10'3 6.2
2018-Jan-19 10:30N 40°39' W 074°06'2 4.8
2018-Jan-19 10:00N 40°40' W 074°03'0 0.0
2018-Jan-19 09:30N 40°40' W 074°03'0 0.0
2018-Jan-19 09:00N 40°40' W 074°03'0 0.0
2018-Jan-19 08:30N 40°40' W 074°03'0 0.0
2018-Jan-19 08:00N 40°40' W 074°03'0 0.0
2018-Jan-19 07:30N 40°40' W 074°03'0 0.0
2018-Jan-19 07:00N 40°40' W 074°03'0 0.0
2018-Jan-19 06:30N 40°40' W 074°03'0 0.0
2018-Jan-19 06:00N 40°40' W 074°03'0 0.0
2018-Jan-19 05:30N 40°40' W 074°03'0 0.1
2018-Jan-19 05:00N 40°40' W 074°03'0 0.1
2018-Jan-19 04:30N 40°40' W 074°03'0 0.1
2018-Jan-19 04:00N 40°40' W 074°03'0 0.1
2018-Jan-19 03:30N 40°40' W 074°03'0 0.0
2018-Jan-19 03:00N 40°40' W 074°03'0 0.0
2018-Jan-19 02:30N 40°40' W 074°03'0 0.0
2018-Jan-19 02:00N 40°40' W 074°03'0 0.0
2018-Jan-19 01:30N 40°40' W 074°03'0 0.0
2018-Jan-19 01:00N 40°40' W 074°03'0 0.0
2018-Jan-19 00:30N 40°40' W 074°03'0 0.1
2018-Jan-19 00:00N 40°40' W 074°03'0 0.0
2018-Jan-18 23:30N 40°40' W 074°03'0 0.0
2018-Jan-18 23:00N 40°40' W 074°03'0 0.0
2018-Jan-18 22:30N 40°40' W 074°03'0 0.0
2018-Jan-18 22:00N 40°40' W 074°03'0 0.0
2018-Jan-18 21:30N 40°40' W 074°03'0 0.0
2018-Jan-18 21:00N 40°40' W 074°03'0 0.0
2018-Jan-18 20:30N 40°40' W 074°03'0 0.0
2018-Jan-18 20:00N 40°40' W 074°03'0 0.0
2018-Jan-18 19:30N 40°40' W 074°03'0 0.0
2018-Jan-18 19:00N 40°40' W 074°03'0 0.0
2018-Jan-18 18:30N 40°40' W 074°03'0 0.0
2018-Jan-18 18:00N 40°40' W 074°03'0 0.0
2018-Jan-18 17:30N 40°40' W 074°03'0 0.0
2018-Jan-18 17:00N 40°40' W 074°03'0 0.1
2018-Jan-18 16:30N 40°40' W 074°03'0 0.1
2018-Jan-18 16:00N 40°40' W 074°03'0 0.1
2018-Jan-18 15:30N 40°40' W 074°03'0 0.0
2018-Jan-18 15:00N 40°40' W 074°03'0 0.0
2018-Jan-18 14:30N 40°40' W 074°03'2 3.3
2018-Jan-18 14:00N 40°41' W 074°01'4 7.5
2018-Jan-18 13:30N 40°44' W 073°58'3 6.5
2018-Jan-18 13:00N 40°47' W 073°56'3 6.4
2018-Jan-18 12:27N 40°48' W 073°52'56 9.6
2018-Jan-18 06:39N 41°07' W 072°42'2 9.7
2018-Jan-18 06:25N 41°07' W 072°39'4 9.7
2018-Jan-18 05:58N 41°08' W 072°33'710.2
2018-Jan-18 05:17N 41°10' W 072°24'310.4
2018-Jan-18 05:00N 41°11' W 072°21'610.6
2018-Jan-18 04:27N 41°12' W 072°13'4110.3
2018-Jan-18 00:30N 41°27' W 071°23'5 9.5
2018-Jan-17 23:56N 41°32' W 071°20'  
Track history (hours):
 
Tides and Currents Weather Stations Pressure Air Temp Water Temp Dewpoint Dewpoint Depression Visibility Wind Speed Wind Dir Waves Ship Positions

Timothy L. Reinauer

Owner: H.A. Reineauer, Staten Island, NY. More information available from US FCC via Universal Licensing System.

Last reported at 2018-Jan-21 18:30 UTC. Time now 2018-Jan-21 18:38 UTC.
Position N 41°48' W 071°24'.

Length 141 m; draft 6.7 m.

Type: . MMSI: 367409290.

Date/timePositionNaut miles runAvg speedWind from/ knotsBaromVisibWave heightAir tempDewpointWater temp
2018-Jan-21 18:30N 41°48' W 071°24'0 0.0
2018-Jan-21 18:00N 41°48' W 071°24'0 0.0
2018-Jan-21 17:30N 41°48' W 071°24'0 0.0
2018-Jan-21 17:00N 41°48' W 071°24'0 0.0
2018-Jan-21 16:29N 41°48' W 071°24'0 0.0
2018-Jan-21 16:00N 41°48' W 071°24'0 0.0
2018-Jan-21 15:30N 41°48' W 071°24'0 0.0
2018-Jan-21 15:00N 41°48' W 071°24'0 0.0
2018-Jan-21 14:30N 41°48' W 071°24'0 0.0
2018-Jan-21 14:00N 41°48' W 071°24'0 0.0
2018-Jan-21 13:30N 41°48' W 071°24'0 0.0
2018-Jan-21 13:00N 41°48' W 071°24'0 0.0
2018-Jan-21 12:30N 41°48' W 071°24'0 0.0
2018-Jan-21 12:00N 41°48' W 071°24'0 0.0
2018-Jan-21 11:30N 41°48' W 071°24'0 0.0
2018-Jan-21 11:00N 41°48' W 071°24'0 0.0
2018-Jan-21 10:30N 41°48' W 071°24'0 0.0
2018-Jan-21 10:00N 41°48' W 071°24'0 0.0
2018-Jan-21 09:30N 41°48' W 071°24'0 0.2
2018-Jan-21 09:00N 41°48' W 071°24'1 2.2
2018-Jan-21 08:30N 41°47' W 071°23'3 5.6
2018-Jan-21 07:59N 41°44' W 071°22'4 8.3
2018-Jan-21 07:31N 41°41' W 071°19'7 8.5
2018-Jan-21 06:41N 41°34' W 071°19'2 8.6
2018-Jan-21 06:30N 41°33' W 071°19'41 7.5
2018-Jan-21 01:03N 41°13' W 072°08'1 9.6
2018-Jan-21 00:59N 41°13' W 072°09'510.1
2018-Jan-21 00:30N 41°12' W 072°15'510.7
2018-Jan-21 00:00N 41°10' W 072°21'510.7
2018-Jan-20 23:30N 41°08' W 072°28'5 9.6
2018-Jan-20 23:00N 41°08' W 072°34'510.2
2018-Jan-20 22:29N 41°07' W 072°41'510.2
2018-Jan-20 22:00N 41°05' W 072°48'37 9.8
2018-Jan-20 18:12N 40°56' W 073°35'2 9.4
2018-Jan-20 17:58N 40°55' W 073°38'4 9.3
2018-Jan-20 17:30N 40°53' W 073°43'5 9.3
2018-Jan-20 16:59N 40°49' W 073°47'4 7.8
2018-Jan-20 16:30N 40°48' W 073°52'4 8.6
2018-Jan-20 16:00N 40°46' W 073°57'5 8.9
2018-Jan-20 15:30N 40°42' W 073°60'4 9.0
2018-Jan-20 15:00N 40°39' W 074°03'0 0.8
2018-Jan-20 14:30N 40°38' W 074°03'1 2.1
2018-Jan-20 14:00N 40°39' W 074°04'3 5.8
2018-Jan-20 13:30N 40°39' W 074°08'3 5.6
2018-Jan-20 13:00N 40°38' W 074°12'3 6.5
2018-Jan-20 12:30N 40°35' W 074°13'3 6.4
2018-Jan-20 12:00N 40°33' W 074°15'0 0.0
2018-Jan-20 11:25N 40°33' W 074°15'0 0.0
2018-Jan-20 10:59N 40°33' W 074°15'0 0.0
2018-Jan-20 10:20N 40°33' W 074°15'1 2.0
2018-Jan-20 10:00N 40°33' W 074°15'5 9.4
2018-Jan-20 09:30N 40°37' W 074°12'4 7.0
2018-Jan-20 09:00N 40°38' W 074°08'0 0.0
2018-Jan-20 08:30N 40°38' W 074°08'0 0.0
2018-Jan-20 08:00N 40°38' W 074°08'0 0.0
2018-Jan-20 07:30N 40°38' W 074°08'0 0.0
2018-Jan-20 07:00N 40°38' W 074°08'0 0.0
2018-Jan-20 06:30N 40°38' W 074°08'0 0.0
2018-Jan-20 06:00N 40°38' W 074°08'0 0.0
2018-Jan-20 05:30N 40°38' W 074°08'0 0.0
2018-Jan-20 05:00N 40°38' W 074°08'0 0.0
2018-Jan-20 04:30N 40°38' W 074°08'0 0.0
2018-Jan-20 04:00N 40°38' W 074°08'0 0.0
2018-Jan-20 03:29N 40°38' W 074°08'0 0.0
2018-Jan-20 03:00N 40°38' W 074°08'0 0.0
2018-Jan-20 02:30N 40°38' W 074°08'0 0.0
2018-Jan-20 02:00N 40°38' W 074°08'0 0.0
2018-Jan-20 01:30N 40°38' W 074°08'0 0.0
2018-Jan-20 01:00N 40°38' W 074°08'0 0.0
2018-Jan-20 00:29N 40°38' W 074°08'0 0.0
2018-Jan-20 00:00N 40°38' W 074°08'0 0.0
2018-Jan-19 23:30N 40°38' W 074°08'0 0.0
2018-Jan-19 23:00N 40°38' W 074°08'0 0.0
2018-Jan-19 22:30N 40°38' W 074°08'0 0.0
2018-Jan-19 21:59N 40°38' W 074°08'0 0.0
2018-Jan-19 21:29N 40°38' W 074°08'0 0.0
2018-Jan-19 21:00N 40°38' W 074°08'0 0.0
2018-Jan-19 20:30N 40°38' W 074°08'0 0.0
2018-Jan-19 20:00N 40°38' W 074°08'0 0.1
2018-Jan-19 19:30N 40°38' W 074°08'0 0.0
2018-Jan-19 19:00N 40°38' W 074°08'3 6.0
2018-Jan-19 18:28N 40°38' W 074°12'4 8.6
2018-Jan-19 17:59N 40°34' W 074°13'1 0.3
2018-Jan-19 13:36N 40°33' W 074°14'0 0.2
2018-Jan-19 13:30N 40°33' W 074°14'1 1.9
2018-Jan-19 12:57N 40°33' W 074°15'6 3.9
2018-Jan-19 11:30N 40°38' W 074°12'2 4.4
2018-Jan-19 11:00N 40°39' W 074°10'3 6.2
2018-Jan-19 10:30N 40°39' W 074°06'2 4.8
2018-Jan-19 10:00N 40°40' W 074°03'0 0.0
2018-Jan-19 09:30N 40°40' W 074°03'0 0.0
2018-Jan-19 09:00N 40°40' W 074°03'0 0.0
2018-Jan-19 08:30N 40°40' W 074°03'0 0.0
2018-Jan-19 08:00N 40°40' W 074°03'0 0.0
2018-Jan-19 07:30N 40°40' W 074°03'0 0.0
2018-Jan-19 07:00N 40°40' W 074°03'0 0.0
2018-Jan-19 06:30N 40°40' W 074°03'0 0.0
2018-Jan-19 06:00N 40°40' W 074°03'0 0.0
2018-Jan-19 05:30N 40°40' W 074°03'0 0.1
2018-Jan-19 05:00N 40°40' W 074°03'0 0.1
2018-Jan-19 04:30N 40°40' W 074°03'0 0.1
2018-Jan-19 04:00N 40°40' W 074°03'0 0.1
2018-Jan-19 03:30N 40°40' W 074°03'0 0.0
2018-Jan-19 03:00N 40°40' W 074°03'0 0.0
2018-Jan-19 02:30N 40°40' W 074°03'0 0.0
2018-Jan-19 02:00N 40°40' W 074°03'0 0.0
2018-Jan-19 01:30N 40°40' W 074°03'0 0.0
2018-Jan-19 01:00N 40°40' W 074°03'0 0.0
2018-Jan-19 00:30N 40°40' W 074°03'0 0.1
2018-Jan-19 00:00N 40°40' W 074°03'0 0.0
2018-Jan-18 23:30N 40°40' W 074°03'0 0.0
2018-Jan-18 23:00N 40°40' W 074°03'0 0.0
2018-Jan-18 22:30N 40°40' W 074°03'0 0.0
2018-Jan-18 22:00N 40°40' W 074°03'0 0.0
2018-Jan-18 21:30N 40°40' W 074°03'0 0.0
2018-Jan-18 21:00N 40°40' W 074°03'0 0.0
2018-Jan-18 20:30N 40°40' W 074°03'0 0.0
2018-Jan-18 20:00N 40°40' W 074°03'0 0.0
2018-Jan-18 19:30N 40°40' W 074°03'0 0.0
2018-Jan-18 19:00N 40°40' W 074°03'0 0.0
2018-Jan-18 18:30N 40°40' W 074°03'0 0.0
2018-Jan-18 18:00N 40°40' W 074°03'0 0.0
2018-Jan-18 17:30N 40°40' W 074°03'0 0.0
2018-Jan-18 17:00N 40°40' W 074°03'0 0.1
2018-Jan-18 16:30N 40°40' W 074°03'0 0.1
2018-Jan-18 16:00N 40°40' W 074°03'0 0.1
2018-Jan-18 15:30N 40°40' W 074°03'0 0.0
2018-Jan-18 15:00N 40°40' W 074°03'0 0.0
2018-Jan-18 14:30N 40°40' W 074°03'2 3.3
2018-Jan-18 14:00N 40°41' W 074°01'4 7.5
2018-Jan-18 13:30N 40°44' W 073°58'3 6.5
2018-Jan-18 13:00N 40°47' W 073°56'3 6.4
2018-Jan-18 12:27N 40°48' W 073°52'56 9.6
2018-Jan-18 06:39N 41°07' W 072°42'2 9.7
2018-Jan-18 06:25N 41°07' W 072°39'4 9.7
2018-Jan-18 05:58N 41°08' W 072°33'710.2
2018-Jan-18 05:17N 41°10' W 072°24'310.4
2018-Jan-18 05:00N 41°11' W 072°21'610.6
2018-Jan-18 04:27N 41°12' W 072°13'4110.3
2018-Jan-18 00:30N 41°27' W 071°23'5 9.5
2018-Jan-17 23:56N 41°32' W 071°20'  

Dump ship's entire track history